Time;durP1;ratioP1;P1;durP2;ratioP2;P2;SDS_P1;SDS_P2;PMS_P1;PMS_P2;Temp;Humidity;BMP_temperature;BMP_pressure;BME280_temperature;BME280_humidity;BME280_pressure;Samples;Min_cycle;Max_cycle;Signal;HPM_P1;HPM_P2
2023/01/15 00:00:27;;;;;;;4.43;1.00;;;8.40;1.00;;;;;;6304838;22;20955;-83
2023/01/15 00:02:57;;;;;;;4.80;1.20;;;8.40;1.00;;;;;;6334138;22;20398;-85
2023/01/15 00:05:27;;;;;;;4.90;1.30;;;8.40;1.00;;;;;;6317907;22;20418;-82
2023/01/15 00:07:55;;;;;;;5.20;1.40;;;8.40;1.00;;;;;;6319358;22;20394;-86
2023/01/15 00:10:30;;;;;;;4.70;1.40;;;8.50;1.00;;;;;;6318604;22;20390;-86
2023/01/15 00:12:59;;;;;;;5.47;1.23;;;8.50;1.00;;;;;;6274717;22;20267;-86
2023/01/15 00:15:38;;;;;;;9.55;1.83;;;8.50;1.00;;;;;;6319240;22;20410;-82
2023/01/15 00:18:18;;;;;;;5.03;1.00;;;8.50;1.00;;;;;;6317944;22;20211;-87
2023/01/15 00:20:48;;;;;;;4.70;1.10;;;8.50;1.00;;;;;;6303558;22;20386;-86
2023/01/15 00:31:38;;;;;;;5.00;1.20;;;8.60;1.00;;;;;;6283723;22;20281;-83
2023/01/15 00:34:08;;;;;;;4.50;0.93;;;8.70;1.00;;;;;;6285342;22;20430;-89
2023/01/15 00:36:39;;;;;;;4.70;0.93;;;8.80;1.00;;;;;;6286439;22;20419;-86
2023/01/15 00:39:08;;;;;;;5.80;1.10;;;8.70;1.00;;;;;;6288633;22;20484;-85
2023/01/15 00:44:50;;;;;;;5.00;1.03;;;8.80;1.00;;;;;;6284777;22;20395;-90
2023/01/15 00:47:20;;;;;;;4.60;1.00;;;8.80;1.00;;;;;;6288654;22;20379;-87
2023/01/15 00:49:50;;;;;;;4.87;1.00;;;8.90;1.00;;;;;;6287764;22;20462;-87
2023/01/15 00:52:20;;;;;;;4.27;0.80;;;8.90;1.00;;;;;;6286778;22;20390;-85
2023/01/15 00:54:50;;;;;;;5.35;1.00;;;8.90;1.00;;;;;;6283687;22;20438;-85
2023/01/15 00:57:20;;;;;;;4.47;0.80;;;9.00;1.00;;;;;;6287651;22;20231;-88
2023/01/15 01:00:08;;;;;;;4.90;1.00;;;9.10;1.00;;;;;;6285096;22;20212;-85
2023/01/15 01:02:46;;;;;;;5.43;1.23;;;9.10;1.00;;;;;;6289493;22;20398;-87
2023/01/15 01:05:38;;;;;;;5.03;1.00;;;9.10;1.00;;;;;;6320773;22;20437;-88
2023/01/15 01:08:07;;;;;;;4.32;0.80;;;9.20;1.00;;;;;;6320199;22;20398;-87
2023/01/15 01:10:57;;;;;;;5.20;1.00;;;9.20;1.00;;;;;;6303020;22;20191;-88
2023/01/15 01:13:28;;;;;;;5.20;1.10;;;9.20;1.00;;;;;;6310824;22;20414;-91
2023/01/15 01:16:37;;;;;;;4.40;1.00;;;9.30;1.00;;;;;;6283417;22;20403;-89
2023/01/15 01:19:17;;;;;;;4.38;0.77;;;9.30;1.00;;;;;;6285037;22;21170;-89
2023/01/15 01:22:00;;;;;;;4.47;0.80;;;9.40;1.00;;;;;;6295488;22;20368;-90
2023/01/15 01:24:29;;;;;;;4.40;0.93;;;9.50;1.00;;;;;;6307244;22;20429;-89
2023/01/15 01:26:58;;;;;;;4.20;0.60;;;9.50;1.00;;;;;;6281500;22;20493;-90
2023/01/15 01:29:29;;;;;;;4.40;0.90;;;9.60;1.00;;;;;;6281982;22;20402;-90
2023/01/15 01:32:09;;;;;;;4.30;0.80;;;9.60;1.00;;;;;;6276905;22;20896;-90
2023/01/15 01:34:38;;;;;;;4.27;0.70;;;9.60;1.00;;;;;;6310376;22;20410;-89
2023/01/15 01:37:17;;;;;;;5.13;0.90;;;9.70;1.00;;;;;;6310743;22;20423;-89
2023/01/15 01:39:58;;;;;;;4.70;1.20;;;9.70;1.00;;;;;;6263210;22;20403;-90
2023/01/15 01:42:52;;;;;;;;;;;;;;;;;;;;;
2023/01/15 01:45:34;;;;;;;4.50;0.80;;;9.80;1.00;;;;;;6268699;22;49031;-89
2023/01/15 01:48:10;;;;;;;5.03;0.70;;;9.80;1.00;;;;;;6210547;22;20992;-91
2023/01/15 01:50:40;;;;;;;4.53;0.90;;;9.80;1.00;;;;;;6233438;22;20914;-89
2023/01/15 01:53:42;;;;;;;4.67;0.70;;;9.90;1.00;;;;;;6239879;22;20481;-90
2023/01/15 01:56:22;;;;;;;;;;;;;;;;;;;;;
2023/01/15 01:59:22;;;;;;;4.43;0.80;;;9.90;1.00;;;;;;6255126;22;40079;-90
2023/01/15 02:02:01;;;;;;;4.13;0.60;;;9.90;1.00;;;;;;6129180;23;20416;-91
2023/01/15 02:04:39;;;;;;;4.60;0.90;;;9.80;1.00;;;;;;6298359;22;20426;-90
2023/01/15 02:07:13;;;;;;;5.17;0.73;;;9.80;1.00;;;;;;6312292;22;20410;-90
2023/01/15 02:09:40;;;;;;;4.60;0.77;;;9.70;1.00;;;;;;6283434;22;20425;-91
2023/01/15 02:12:38;;;;;;;4.80;0.80;;;9.70;1.00;;;;;;6268573;22;20402;-91
2023/01/15 02:15:45;;;;;;;;;;;;;;;;;;;;;
2023/01/15 02:19:03;;;;;;;;;;;;;;;;;;;;;
2023/01/15 02:22:06;;;;;;;4.60;0.73;;;9.40;1.00;;;;;;6054609;23;50301;-90
2023/01/15 02:28:15;;;;;;;4.47;0.80;;;9.30;1.00;;;;;;6254795;22;20411;-90
2023/01/15 02:31:12;;;;;;;4.53;1.00;;;9.30;1.00;;;;;;6273889;22;20414;-89
2023/01/15 02:34:04;;;;;;;;;;;;;;;;;;;;;
2023/01/15 02:36:44;;;;;;;4.40;0.60;;;9.20;1.00;;;;;;6265293;22;41083;-90
2023/01/15 02:39:46;;;;;;;;;;;;;;;;;;;;;
2023/01/15 02:48:16;;;;;;;4.60;0.60;;;9.00;1.00;;;;;;6097374;22;20473;-90
2023/01/15 02:50:50;;;;;;;4.30;0.73;;;9.00;1.00;;;;;;6260641;22;20278;-90
2023/01/15 02:53:26;;;;;;;5.15;1.00;;;9.00;1.00;;;;;;6302541;22;20458;-90
2023/01/15 02:59:08;;;;;;;;;;;;;;;;;;;;;
2023/01/15 03:02:09;;;;;;;4.33;0.80;;;8.90;1.00;;;;;;6292475;22;41634;-91
2023/01/15 03:05:19;;;;;;;4.70;0.70;;;8.90;1.00;;;;;;6274876;22;20417;-91
2023/01/15 03:08:00;;;;;;;4.10;0.67;;;9.00;1.00;;;;;;6268699;22;20448;-90
2023/01/15 03:10:39;;;;;;;4.00;0.70;;;9.00;1.00;;;;;;6337843;22;20410;-91
2023/01/15 03:13:43;;;;;;;4.82;1.00;;;9.00;1.00;;;;;;6309409;22;20393;-90
2023/01/15 03:16:39;;;;;;;4.93;0.73;;;8.90;1.00;;;;;;6158532;23;20206;-91
2023/01/15 03:19:29;;;;;;;4.50;0.70;;;8.90;1.00;;;;;;6167887;22;20407;-90
2023/01/15 03:22:21;;;;;;;4.07;0.70;;;9.00;1.00;;;;;;6261197;22;20963;-90
2023/01/15 03:25:10;;;;;;;4.27;0.87;;;8.90;1.00;;;;;;6272959;22;20241;-91
2023/01/15 03:27:41;;;;;;;4.60;0.80;;;9.00;1.00;;;;;;6252859;22;20481;-91
2023/01/15 03:30:31;;;;;;;5.20;1.00;;;9.00;1.00;;;;;;6269484;22;20398;-91
2023/01/15 03:33:21;;;;;;;4.30;0.90;;;9.00;1.00;;;;;;6261297;22;20206;-91
2023/01/15 03:36:34;;;;;;;;;;;;;;;;;;;;;
2023/01/15 03:39:10;;;;;;;4.40;1.07;;;9.00;1.00;;;;;;6226577;22;50497;-91
2023/01/15 03:42:00;;;;;;;4.40;0.90;;;9.00;1.00;;;;;;6278265;22;20432;-92
2023/01/15 03:44:52;;;;;;;;;;;;;;;;;;;;;
2023/01/15 03:47:33;;;;;;;5.70;1.00;;;9.00;1.00;;;;;;6283139;22;49008;-91
2023/01/15 03:50:16;;;;;;;4.60;1.00;;;9.00;1.00;;;;;;6280732;22;20406;-91
2023/01/15 03:53:21;;;;;;;;;;;;;;;;;;;;;
2023/01/15 03:56:18;;;;;;;4.50;0.90;;;9.00;1.00;;;;;;6273836;22;40138;-91
2023/01/15 03:59:13;;;;;;;5.80;0.80;;;9.00;1.00;;;;;;6234862;22;20234;-91
2023/01/15 04:02:19;;;;;;;4.80;1.00;;;9.00;1.00;;;;;;6210247;22;20379;-90
2023/01/15 04:05:20;;;;;;;5.05;1.35;;;9.00;1.00;;;;;;6259263;22;20391;-90
2023/01/15 04:08:20;;;;;;;4.95;0.93;;;9.00;1.00;;;;;;6232675;22;20289;-90
2023/01/15 04:11:03;;;;;;;6.18;1.10;;;9.00;1.00;;;;;;6285059;22;20234;-90
2023/01/15 04:13:52;;;;;;;;;;;;;;;;;;;;;
2023/01/15 04:16:33;;;;;;;6.10;1.07;;;9.00;1.00;;;;;;6273578;22;51954;-90
2023/01/15 04:19:03;;;;;;;4.72;0.95;;;9.00;1.00;;;;;;6241285;22;20417;-91
2023/01/15 04:21:30;;;;;;;4.40;0.70;;;8.70;1.00;;;;;;6266275;22;21007;-91
2023/01/15 04:24:18;;;;;;;4.85;0.90;;;8.50;1.00;;;;;;6270595;22;20214;-91
2023/01/15 04:26:59;;;;;;;4.80;0.63;;;8.30;1.00;;;;;;6264252;22;20285;-91
2023/01/15 04:30:20;;;;;;;;;;;;;;;;;;;;;
2023/01/15 04:33:17;;;;;;;4.40;0.75;;;8.00;1.00;;;;;;6250631;22;51109;-91
2023/01/15 04:36:18;;;;;;;;;;;;;;;;;;;;;
2023/01/15 04:39:11;;;;;;;5.00;0.90;;;7.80;1.00;;;;;;6253015;22;42284;-89
2023/01/15 04:44:47;;;;;;;4.50;0.50;;;7.40;1.00;;;;;;6296006;22;20208;-91
2023/01/15 04:47:40;;;;;;;4.40;0.70;;;6.90;1.00;;;;;;6284732;22;20259;-92
2023/01/15 04:50:19;;;;;;;5.03;0.47;;;6.60;1.00;;;;;;6276629;22;20196;-90
2023/01/15 04:52:58;;;;;;;4.78;0.70;;;6.50;1.00;;;;;;6281957;22;20196;-91
2023/01/15 04:55:36;;;;;;;4.55;0.60;;;6.40;1.00;;;;;;6296953;22;20192;-90
2023/01/15 04:58:11;;;;;;;5.13;0.90;;;6.30;1.00;;;;;;6292476;22;20230;-91
2023/01/15 05:24:50;;;;;;;;;;;;;;;;;;;;;
2023/01/15 05:27:21;;;;;;;5.05;0.80;;;6.20;1.00;;;;;;6321893;22;48918;-85
2023/01/15 05:30:27;;;;;;;4.72;0.73;;;6.20;1.00;;;;;;6322525;22;20211;-81
2023/01/15 05:33:10;;;;;;;5.60;0.82;;;6.10;1.00;;;;;;6209315;22;20215;-82
2023/01/15 05:36:41;;;;;;;;;;;;;;;;;;;;;
2023/01/15 05:39:31;;;;;;;4.70;1.00;;;6.10;1.00;;;;;;6323187;22;50105;-83
2023/01/15 05:46:07;;;;;;;4.82;0.85;;;6.00;1.00;;;;;;6178873;22;20271;-82
2023/01/15 05:51:40;;;;;;;;;;;;;;;;;;;;;
2023/01/15 05:54:38;;;;;;;6.38;0.88;;;6.00;1.00;;;;;;6322476;22;37700;-85
2023/01/15 05:57:31;;;;;;;;;;;;;;;;;;;;;
2023/01/15 06:00:00;;;;;;;5.15;0.80;;;6.00;1.00;;;;;;6278304;22;49994;-83
2023/01/15 06:02:31;;;;;;;5.13;0.90;;;6.00;1.00;;;;;;6321805;22;20311;-84
2023/01/15 06:05:04;;;;;;;4.40;0.70;;;5.90;1.00;;;;;;6303313;22;20722;-81
2023/01/15 06:07:31;;;;;;;4.63;0.82;;;5.90;1.00;;;;;;6316154;22;20264;-82
2023/01/15 06:10:02;;;;;;;5.03;1.15;;;6.00;1.00;;;;;;6318601;22;20212;-83
2023/01/15 06:12:50;;;;;;;4.50;0.70;;;6.00;1.00;;;;;;6302749;22;20203;-82
2023/01/15 06:15:20;;;;;;;5.15;0.82;;;6.00;1.00;;;;;;6306288;22;20282;-82
2023/01/15 06:17:50;;;;;;;5.32;1.17;;;6.00;1.00;;;;;;6314737;22;20253;-84
2023/01/15 06:20:29;;;;;;;5.07;0.80;;;6.10;1.00;;;;;;6322436;22;20215;-82
2023/01/15 06:23:19;;;;;;;5.95;0.90;;;6.10;1.00;;;;;;6315563;22;20294;-83
2023/01/15 06:25:49;;;;;;;5.65;0.65;;;6.20;1.00;;;;;;6312832;22;21012;-87
2023/01/15 06:28:27;;;;;;;5.28;0.82;;;6.20;1.00;;;;;;6310718;22;20227;-82
2023/01/15 06:34:31;;;;;;;5.05;0.90;;;6.30;1.00;;;;;;6215348;22;20560;-82
2023/01/15 06:40:22;;;;;;;;;;;;;;;;;;;;;
2023/01/15 06:55:39;;;;;;;4.82;0.68;;;6.30;1.00;;;;;;5959960;23;20300;-83
2023/01/15 06:58:24;;;;;;;;;;;;;;;;;;;;;
2023/01/15 07:01:39;;;;;;;5.32;1.17;;;6.20;1.00;;;;;;6205030;22;38018;-82
2023/01/15 07:04:59;;;;;;;;;;;;;;;;;;;;;
2023/01/15 07:08:11;;;;;;;8.32;1.35;;;6.20;1.00;;;;;;6130692;23;50806;-82
2023/01/15 07:31:41;;;;;;;5.82;1.20;;;6.10;1.00;;;;;;4958412;28;20243;-83
2023/01/15 07:50:19;;;;;;;4.40;0.80;;;5.90;1.00;;;;;;4978243;28;20294;-84
2023/01/15 07:52:52;;;;;;;5.10;0.93;;;5.90;1.00;;;;;;4974942;28;20357;-83
2023/01/15 07:55:19;;;;;;;5.20;1.00;;;5.90;1.00;;;;;;4987322;28;20248;-81
2023/01/15 07:57:48;;;;;;;4.90;1.08;;;5.90;1.00;;;;;;4986981;28;21053;-80
2023/01/15 08:00:20;;;;;;;5.05;1.20;;;5.90;1.00;;;;;;4984132;28;20316;-81
2023/01/15 08:02:55;;;;;;;5.90;1.10;;;6.00;1.00;;;;;;4988338;28;20248;-83
2023/01/15 08:05:22;;;;;;;6.63;1.10;;;6.00;1.00;;;;;;4990086;28;20246;-84
2023/01/15 08:07:49;;;;;;;4.80;0.80;;;6.00;1.00;;;;;;4985978;28;20726;-82
2023/01/15 08:10:18;;;;;;;5.03;1.10;;;5.90;1.00;;;;;;4988770;28;20242;-81
2023/01/15 08:15:37;;;;;;;5.53;0.63;;;6.00;1.00;;;;;;4984899;28;20243;-81
2023/01/15 08:18:13;;;;;;;5.00;1.00;;;6.00;1.00;;;;;;4984773;28;21077;-85
2023/01/15 08:20:40;;;;;;;5.35;1.05;;;6.00;1.00;;;;;;4984020;28;20244;-82
2023/01/15 08:23:11;;;;;;;5.15;0.95;;;6.00;1.00;;;;;;4985612;28;21086;-83
2023/01/15 08:25:38;;;;;;;5.45;1.20;;;6.00;1.00;;;;;;4982457;28;20219;-81
2023/01/15 08:28:13;;;;;;;5.00;1.20;;;6.00;1.00;;;;;;4976373;28;20248;-83
2023/01/15 08:30:50;;;;;;;5.13;1.50;;;6.00;1.00;;;;;;5007249;28;20242;-81
2023/01/15 08:36:13;;;;;;;5.47;1.00;;;6.10;1.00;;;;;;5003981;28;20291;-80
2023/01/15 08:38:40;;;;;;;5.03;0.95;;;6.10;1.00;;;;;;5009525;28;20242;-81
2023/01/15 08:41:10;;;;;;;5.57;0.90;;;6.20;1.00;;;;;;5016415;28;20207;-80
2023/01/15 08:43:39;;;;;;;4.38;0.90;;;6.10;1.00;;;;;;5013294;28;20223;-82
2023/01/15 08:46:22;;;;;;;4.65;1.20;;;6.20;1.00;;;;;;5010415;28;20330;-79
2023/01/15 08:48:52;;;;;;;4.50;1.00;;;6.20;1.00;;;;;;5011326;28;20227;-82
2023/01/15 08:51:21;;;;;;;5.72;1.17;;;6.30;1.00;;;;;;5019515;28;20240;-79
2023/01/15 08:53:48;;;;;;;5.18;0.90;;;6.40;1.00;;;;;;5012236;28;20326;-80
2023/01/15 08:56:29;;;;;;;4.60;0.80;;;6.50;1.00;;;;;;5012066;28;20239;-81
2023/01/15 08:59:08;;;;;;;5.63;0.95;;;6.60;1.00;;;;;;5011343;28;20238;-84
2023/01/15 09:01:50;;;;;;;4.78;0.90;;;6.60;1.00;;;;;;5011589;28;20250;-83
2023/01/15 09:04:22;;;;;;;6.80;1.80;;;6.60;1.00;;;;;;5011510;28;20260;-82
2023/01/15 09:06:50;;;;;;;5.32;1.20;;;6.70;1.00;;;;;;5006079;28;20380;-84
2023/01/15 09:09:17;;;;;;;5.53;0.80;;;6.70;1.00;;;;;;5010053;28;20298;-87
2023/01/15 09:11:53;;;;;;;5.75;0.93;;;6.80;1.00;;;;;;5012312;28;20239;-81
2023/01/15 09:14:20;;;;;;;6.15;1.73;;;6.80;1.00;;;;;;5012179;28;20351;-82
2023/01/15 09:16:58;;;;;;;5.22;1.42;;;6.70;1.00;;;;;;5013369;28;20968;-82
2023/01/15 09:19:38;;;;;;;6.75;1.20;;;6.70;1.00;;;;;;5016443;28;20242;-82
2023/01/15 09:22:12;;;;;;;4.95;1.00;;;6.70;1.00;;;;;;5013069;28;20725;-81
2023/01/15 09:24:52;;;;;;;6.55;1.20;;;6.80;1.00;;;;;;5014186;28;20932;-81
2023/01/15 09:27:21;;;;;;;4.82;1.05;;;6.80;1.00;;;;;;5015056;28;20713;-84
2023/01/15 09:30:19;;;;;;;;;;;;;;;;;;;;;
2023/01/15 09:33:02;;;;;;;6.05;1.17;;;6.90;1.00;;;;;;5013153;28;39755;-84
2023/01/15 09:35:40;;;;;;;7.80;1.25;;;7.00;1.00;;;;;;5017910;28;20223;-82
2023/01/15 09:38:29;;;;;;;5.20;1.00;;;6.90;1.00;;;;;;5019546;28;20302;-81
2023/01/15 09:42:04;;;;;;;4.90;0.90;;;6.90;1.00;;;;;;5017317;28;20254;-81
2023/01/15 09:44:29;;;;;;;5.10;1.45;;;7.00;1.00;;;;;;5025696;28;20235;-81
2023/01/15 09:47:19;;;;;;;5.57;1.20;;;7.10;1.00;;;;;;5020935;28;21147;-81
2023/01/15 09:50:29;;;;;;;6.32;1.52;;;7.10;1.00;;;;;;5014613;28;20330;-81
2023/01/15 09:53:30;;;;;;;5.80;1.58;;;7.10;1.00;;;;;;5001568;28;20270;-82
2023/01/15 09:56:07;;;;;;;4.85;1.05;;;7.20;1.00;;;;;;5010031;28;20291;-82
2023/01/15 10:07:40;;;;;;;5.80;1.20;;;7.60;1.00;;;;;;5012791;28;20227;-85
2023/01/15 10:10:22;;;;;;;5.30;1.20;;;7.70;1.00;;;;;;5017513;28;20231;-79
2023/01/15 10:13:02;;;;;;;6.25;1.30;;;7.70;1.00;;;;;;5008241;28;20251;-82
2023/01/15 10:15:40;;;;;;;7.97;1.30;;;7.80;1.00;;;;;;5037340;28;20264;-84
2023/01/15 10:18:15;;;;;;;5.45;1.02;;;7.80;1.00;;;;;;5016459;28;20825;-85
2023/01/15 10:20:59;;;;;;;5.13;1.17;;;7.80;1.00;;;;;;5013758;28;20745;-84
2023/01/15 10:23:38;;;;;;;5.50;1.25;;;7.70;1.00;;;;;;5018556;28;20266;-84
2023/01/15 10:26:20;;;;;;;5.40;1.00;;;7.70;1.00;;;;;;5017232;28;20245;-85
2023/01/15 10:29:10;;;;;;;5.55;1.20;;;7.80;1.00;;;;;;5017590;28;20723;-84
2023/01/15 10:31:53;;;;;;;5.78;1.27;;;7.80;1.00;;;;;;5016927;28;20242;-85
2023/01/15 10:34:47;;;;;;;5.40;1.45;;;7.80;1.00;;;;;;5017007;28;20931;-86
2023/01/15 10:37:20;;;;;;;5.07;1.10;;;7.90;1.00;;;;;;5017169;28;20446;-84
2023/01/15 10:40:19;;;;;;;5.10;1.10;;;7.90;1.00;;;;;;5018643;28;21192;-83
2023/01/15 10:42:59;;;;;;;5.20;1.17;;;7.90;1.00;;;;;;5021624;28;20222;-83
2023/01/15 10:45:30;;;;;;;5.80;1.35;;;8.00;1.00;;;;;;5020444;28;20245;-85
2023/01/15 10:48:05;;;;;;;5.10;1.37;;;8.10;1.00;;;;;;5020396;28;20219;-84
2023/01/15 10:50:58;;;;;;;5.75;1.23;;;8.10;1.00;;;;;;5016568;28;20449;-86
2023/01/15 10:53:50;;;;;;;5.00;1.50;;;8.20;1.00;;;;;;5014086;28;21031;-84
2023/01/15 10:56:37;;;;;;;4.95;1.30;;;8.30;1.00;;;;;;5020012;28;20333;-85
2023/01/15 10:59:28;;;;;;;4.73;1.23;;;8.20;1.00;;;;;;5013866;28;20245;-85
2023/01/15 11:05:29;;;;;;;4.90;1.00;;;8.30;1.00;;;;;;4996860;28;20252;-84
2023/01/15 11:08:24;;;;;;;6.05;1.35;;;8.30;1.00;;;;;;5016349;28;20249;-84
2023/01/15 11:10:51;;;;;;;5.32;1.25;;;8.50;1.00;;;;;;5008813;28;20419;-84
2023/01/15 11:19:40;;;;;;;4.90;1.13;;;8.70;1.00;;;;;;5013492;28;20238;-84
2023/01/15 11:22:20;;;;;;;4.97;1.10;;;8.50;1.00;;;;;;5037096;28;20236;-85
2023/01/15 11:24:52;;;;;;;5.07;1.20;;;8.30;1.00;;;;;;5017953;28;20319;-84
2023/01/15 11:27:29;;;;;;;5.22;1.08;;;8.20;1.00;;;;;;5012201;28;20250;-84
2023/01/15 11:30:08;;;;;;;5.90;1.27;;;8.20;1.00;;;;;;5022811;28;20249;-85
2023/01/15 11:33:05;;;;;;;5.10;1.27;;;8.20;1.00;;;;;;5014004;28;20291;-85
2023/01/15 11:35:41;;;;;;;4.77;1.00;;;8.00;1.00;;;;;;5013972;28;20515;-84
2023/01/15 11:38:21;;;;;;;8.20;2.60;;;8.00;1.00;;;;;;5018821;28;20477;-85
2023/01/15 11:41:01;;;;;;;4.90;1.00;;;8.00;1.00;;;;;;5015623;28;20525;-84
2023/01/15 11:52:05;;;;;;;5.88;0.95;;;8.20;1.00;;;;;;5016469;28;20258;-85
2023/01/15 11:54:39;;;;;;;5.40;1.15;;;8.30;1.00;;;;;;5013718;28;20307;-85
2023/01/15 11:57:06;;;;;;;5.50;1.02;;;8.30;1.00;;;;;;5017593;28;20243;-84
2023/01/15 11:59:40;;;;;;;4.60;0.90;;;8.20;1.00;;;;;;5009907;28;20237;-84
2023/01/15 12:02:29;;;;;;;6.05;1.13;;;8.20;1.00;;;;;;5049479;28;20220;-83
2023/01/15 12:05:01;;;;;;;4.85;0.95;;;8.10;1.00;;;;;;5015736;28;21012;-84
2023/01/15 12:07:31;;;;;;;5.80;1.20;;;8.10;1.00;;;;;;5045948;28;20228;-85
2023/01/15 12:10:13;;;;;;;6.68;1.35;;;8.10;1.00;;;;;;5016692;28;21240;-83
2023/01/15 12:13:01;;;;;;;5.40;1.00;;;8.10;1.00;;;;;;5042117;28;20324;-85
2023/01/15 12:15:39;;;;;;;5.82;1.33;;;8.20;1.00;;;;;;5020863;28;21157;-85
2023/01/15 12:19:02;;;;;;;4.80;1.03;;;8.20;1.00;;;;;;5020711;28;20934;-84
2023/01/15 12:22:14;;;;;;;5.90;1.33;;;8.30;1.00;;;;;;5007452;28;20474;-83
2023/01/15 12:25:09;;;;;;;6.68;1.67;;;8.20;1.00;;;;;;4998319;28;20352;-84
2023/01/15 12:30:49;;;;;;;5.57;1.10;;;8.30;1.00;;;;;;5017694;28;20427;-85
2023/01/15 12:33:51;;;;;;;5.67;1.33;;;8.20;1.00;;;;;;5021174;28;20235;-84
2023/01/15 12:36:29;;;;;;;6.65;1.10;;;8.20;1.00;;;;;;5023640;28;21940;-85
2023/01/15 12:39:21;;;;;;;4.80;0.90;;;8.30;1.00;;;;;;5019866;28;20245;-83
2023/01/15 12:45:07;;;;;;;5.22;1.17;;;8.40;1.00;;;;;;5025189;28;20238;-83
2023/01/15 12:47:43;;;;;;;7.75;1.75;;;8.60;1.00;;;;;;5034377;28;20239;-84
2023/01/15 12:50:33;;;;;;;5.75;1.52;;;8.80;1.00;;;;;;5022583;28;20258;-85
2023/01/15 12:53:09;;;;;;;6.20;1.60;;;8.90;1.00;;;;;;5033907;28;20999;-83
2023/01/15 12:55:41;;;;;;;5.90;1.25;;;8.90;1.00;;;;;;5019670;28;20241;-82
2023/01/15 12:58:24;;;;;;;6.28;1.70;;;8.80;1.00;;;;;;5014774;28;20995;-85
2023/01/15 13:04:14;;;;;;;10.63;3.80;;;8.50;1.00;;;;;;5048127;28;20224;-83
2023/01/15 13:07:10;;;;;;;5.80;1.80;;;8.50;1.00;;;;;;5017792;28;20474;-83
2023/01/15 13:09:51;;;;;;;6.82;1.55;;;8.40;1.00;;;;;;5017103;28;20749;-83
2023/01/15 13:15:12;;;;;;;5.43;1.33;;;8.50;1.00;;;;;;5010794;28;20226;-85
2023/01/15 13:18:01;;;;;;;5.25;1.02;;;8.60;1.00;;;;;;5006634;28;20962;-84
2023/01/15 13:20:49;;;;;;;8.68;2.42;;;8.60;1.00;;;;;;5040165;28;20233;-80
2023/01/15 13:23:51;;;;;;;8.40;1.73;;;8.90;1.00;;;;;;5028287;28;20245;-78
2023/01/15 13:26:44;;;;;;;6.10;1.50;;;9.00;1.00;;;;;;5040679;28;21234;-79
2023/01/15 13:29:29;;;;;;;5.40;1.30;;;9.00;1.00;;;;;;5029957;28;20282;-80
2023/01/15 13:32:31;;;;;;;5.68;1.60;;;8.90;1.00;;;;;;5021481;28;20435;-84
2023/01/15 13:38:16;;;;;;;5.20;1.00;;;8.40;1.00;;;;;;5015195;28;20454;-84
2023/01/15 13:43:56;;;;;;;7.75;1.20;;;8.20;1.00;;;;;;4978166;28;20296;-81
2023/01/15 13:46:33;;;;;;;5.30;1.20;;;8.10;1.00;;;;;;5018325;28;20228;-80
2023/01/15 13:49:04;;;;;;;4.80;1.00;;;8.20;1.00;;;;;;5019678;28;20242;-81
2023/01/15 13:51:52;;;;;;;5.50;1.10;;;8.10;1.00;;;;;;5049622;28;20245;-83
2023/01/15 13:54:31;;;;;;;6.55;1.30;;;8.00;1.00;;;;;;5016698;28;20291;-82
2023/01/15 13:57:24;;;;;;;7.53;1.58;;;7.90;1.00;;;;;;5018186;28;20300;-82
2023/01/15 13:59:53;;;;;;;7.03;1.08;;;7.80;1.00;;;;;;5015389;28;21067;-81
2023/01/15 14:02:52;;;;;;;5.50;1.45;;;7.80;1.00;;;;;;5020365;28;20239;-81
2023/01/15 14:05:30;;;;;;;5.53;1.15;;;7.80;1.00;;;;;;5020170;28;20261;-80
2023/01/15 14:08:21;;;;;;;5.03;0.90;;;7.80;1.00;;;;;;5037046;28;20233;-82
2023/01/15 14:10:54;;;;;;;6.82;1.48;;;7.90;1.00;;;;;;5036477;28;20241;-84
2023/01/15 14:14:03;;;;;;;6.78;1.05;;;7.90;1.00;;;;;;5019465;28;20737;-83
2023/01/15 14:17:11;;;;;;;6.43;1.02;;;7.80;1.00;;;;;;5016396;28;20251;-83
2023/01/15 14:20:10;;;;;;;5.40;1.00;;;7.70;1.00;;;;;;5013261;28;21074;-84
2023/01/15 14:22:57;;;;;;;5.32;1.27;;;7.70;1.00;;;;;;4987533;28;20229;-83
2023/01/15 14:26:01;;;;;;;5.75;1.15;;;7.70;1.00;;;;;;5038366;28;20238;-81
2023/01/15 14:29:00;;;;;;;5.80;0.90;;;7.60;1.00;;;;;;5038066;28;20877;-80
2023/01/15 14:32:10;;;;;;;7.93;1.52;;;7.60;1.00;;;;;;5038900;28;20244;-82
2023/01/15 14:34:49;;;;;;;5.30;1.13;;;7.60;1.00;;;;;;5028462;28;20349;-82
2023/01/15 14:37:31;;;;;;;7.43;1.92;;;7.60;1.00;;;;;;5025961;28;20249;-85
2023/01/15 14:40:23;;;;;;;8.27;1.98;;;7.60;1.00;;;;;;5017112;28;21052;-79
2023/01/15 14:43:10;;;;;;;8.30;1.45;;;7.50;1.00;;;;;;5027850;28;22287;-81
2023/01/15 14:45:43;;;;;;;5.97;1.45;;;7.40;1.00;;;;;;5015672;28;20318;-81
2023/01/15 14:48:43;;;;;;;5.03;1.10;;;7.30;1.00;;;;;;5017976;28;20236;-83
2023/01/15 14:51:21;;;;;;;5.93;1.10;;;7.30;1.00;;;;;;5015287;28;20291;-81
2023/01/15 14:53:53;;;;;;;6.68;1.10;;;7.20;1.00;;;;;;5034464;28;20236;-81
2023/01/15 14:56:32;;;;;;;5.45;1.02;;;7.20;1.00;;;;;;5039072;28;20280;-82
2023/01/15 14:59:11;;;;;;;5.15;1.15;;;7.20;1.00;;;;;;5020784;28;20247;-81
2023/01/15 15:01:49;;;;;;;6.90;1.10;;;7.20;1.00;;;;;;5013237;28;20241;-81
2023/01/15 15:04:43;;;;;;;;;;;;;;;;;;;;;
2023/01/15 15:07:21;;;;;;;6.65;1.20;;;7.30;1.00;;;;;;5007772;28;49643;-80
2023/01/15 15:10:05;;;;;;;6.05;1.30;;;7.40;1.00;;;;;;5019060;28;20246;-80
2023/01/15 15:12:45;;;;;;;5.85;1.42;;;7.30;1.00;;;;;;5016023;28;20784;-84
2023/01/15 15:15:42;;;;;;;6.72;1.35;;;7.30;1.00;;;;;;5016328;28;20243;-81
2023/01/15 15:18:31;;;;;;;6.60;1.52;;;7.10;1.00;;;;;;5012876;28;20243;-86
2023/01/15 15:21:10;;;;;;;5.50;1.10;;;7.00;1.00;;;;;;5018094;28;20223;-81
2023/01/15 15:26:50;;;;;;;5.82;1.65;;;6.80;1.00;;;;;;5013222;28;20238;-83
2023/01/15 15:29:43;;;;;;;5.40;1.10;;;6.70;1.00;;;;;;5019843;28;20230;-80
2023/01/15 15:32:25;;;;;;;4.90;1.05;;;6.60;1.00;;;;;;4990362;28;20963;-81
2023/01/15 15:35:01;;;;;;;5.80;1.23;;;6.60;1.00;;;;;;4991242;28;20429;-79
2023/01/15 15:37:29;;;;;;;5.05;1.20;;;6.50;1.00;;;;;;4983733;28;20244;-81
2023/01/15 15:40:18;;;;;;;5.75;1.13;;;6.50;1.00;;;;;;5001670;28;20267;-81
2023/01/15 15:48:44;;;;;;;5.95;1.20;;;6.40;1.00;;;;;;4989530;28;20295;-80
2023/01/15 15:51:36;;;;;;;6.30;1.23;;;6.30;1.00;;;;;;4984802;28;20732;-80
2023/01/15 15:54:21;;;;;;;6.38;1.10;;;6.30;1.00;;;;;;4971907;28;20745;-80
2023/01/15 15:56:53;;;;;;;5.68;1.10;;;6.20;1.00;;;;;;4987281;28;21138;-85
2023/01/15 15:59:34;;;;;;;5.50;0.93;;;6.20;1.00;;;;;;4985649;28;21070;-82
2023/01/15 16:02:21;;;;;;;5.50;1.13;;;6.20;1.00;;;;;;5003521;28;20274;-81
2023/01/15 16:04:51;;;;;;;5.18;0.80;;;6.10;1.00;;;;;;4986605;28;20236;-80
2023/01/15 16:07:32;;;;;;;6.35;1.20;;;6.10;1.00;;;;;;5014398;28;20262;-83
2023/01/15 16:10:02;;;;;;;5.30;0.80;;;6.10;1.00;;;;;;5013216;28;20284;-81
2023/01/15 16:12:49;;;;;;;6.03;1.20;;;6.00;1.00;;;;;;4985597;28;20239;-81
2023/01/15 16:15:41;;;;;;;;;;;;;;;;;;;;;
2023/01/15 16:18:22;;;;;;;6.32;1.30;;;6.00;1.00;;;;;;4979210;28;49916;-82
2023/01/15 16:21:12;;;;;;;5.55;0.80;;;6.00;1.00;;;;;;5005598;28;21101;-81
2023/01/15 16:23:43;;;;;;;5.10;1.48;;;5.90;1.00;;;;;;4983583;28;20240;-80
2023/01/15 16:26:20;;;;;;;5.15;1.17;;;5.90;1.00;;;;;;4987314;28;20240;-81
2023/01/15 16:29:00;;;;;;;7.18;1.00;;;5.90;1.00;;;;;;4983586;28;20302;-81
2023/01/15 16:31:33;;;;;;;5.45;1.10;;;5.80;1.00;;;;;;5016110;28;20246;-81
2023/01/15 16:34:02;;;;;;;5.20;1.00;;;5.90;1.00;;;;;;5018691;28;20247;-81
2023/01/15 16:36:48;;;;;;;6.43;1.40;;;5.80;1.00;;;;;;5015488;28;20238;-85
2023/01/15 16:39:29;;;;;;;5.10;1.00;;;5.80;1.00;;;;;;5014888;28;20954;-81
2023/01/15 16:42:42;;;;;;;4.90;1.08;;;5.80;1.00;;;;;;5017448;28;20321;-88
2023/01/15 16:45:30;;;;;;;5.20;0.88;;;5.70;1.00;;;;;;5022279;28;20234;-81
2023/01/15 16:48:11;;;;;;;7.15;1.20;;;5.80;1.00;;;;;;5039047;28;21003;-82
2023/01/15 16:50:41;;;;;;;6.07;1.02;;;5.70;1.00;;;;;;5016762;28;20243;-82
2023/01/15 16:53:43;;;;;;;5.25;1.10;;;5.80;1.00;;;;;;5016963;28;20254;-82
2023/01/15 16:56:27;;;;;;;6.47;1.10;;;5.70;1.00;;;;;;5006164;28;20234;-87
2023/01/15 16:58:58;;;;;;;6.55;1.48;;;5.70;1.00;;;;;;5014008;28;20238;-88
2023/01/15 17:01:41;;;;;;;7.95;1.20;;;5.70;1.00;;;;;;5011999;28;20242;-87
2023/01/15 17:04:42;;;;;;;7.22;1.38;;;5.70;1.00;;;;;;5017287;28;20273;-84
2023/01/15 17:10:22;;;;;;;5.00;1.10;;;5.70;1.00;;;;;;5126877;27;21462;-83
2023/01/15 17:12:50;;;;;;;5.90;1.20;;;5.60;1.00;;;;;;5091802;27;20240;-81
2023/01/15 17:18:42;;;;;;;5.60;1.45;;;5.70;1.00;;;;;;5098603;27;20250;-84
2023/01/15 17:39:13;;;;;;;;;;;;;;;;;;;;;
2023/01/15 17:48:02;;;;;;;5.30;1.10;;;5.80;1.00;;;;;;5035578;28;20233;-83
2023/01/15 18:11:01;;;;;;;5.45;1.33;;;5.90;1.00;;;;;;4883732;28;20242;-86
2023/01/15 18:23:52;;;;;;;5.18;0.88;;;5.80;1.00;;;;;;4933575;28;20238;-85
2023/01/15 19:10:41;;;;;;;6.50;1.55;;;5.90;1.00;;;;;;4999146;28;20803;-83
2023/01/15 19:13:32;;;;;;;5.70;1.63;;;5.80;1.00;;;;;;4910560;29;20234;-84
2023/01/15 19:19:22;;;;;;;5.78;1.15;;;5.80;1.00;;;;;;5009850;28;20226;-81
2023/01/15 19:34:06;;;;;;;5.53;1.42;;;5.80;1.00;;;;;;4944247;28;20242;-81
2023/01/15 19:36:46;;;;;;;6.10;1.30;;;5.80;1.00;;;;;;4979310;28;21023;-84
2023/01/15 19:39:23;;;;;;;6.47;1.52;;;5.90;1.00;;;;;;4979148;28;20228;-83
2023/01/15 19:50:40;;;;;;;8.20;1.20;;;5.80;1.00;;;;;;4985594;28;20235;-81
2023/01/15 19:53:22;;;;;;;6.65;1.33;;;5.80;1.00;;;;;;5011237;28;20334;-82
2023/01/15 19:58:52;;;;;;;7.53;1.40;;;5.80;1.00;;;;;;4995001;28;20284;-84
2023/01/15 20:01:22;;;;;;;6.68;1.45;;;5.80;1.00;;;;;;5007062;28;20229;-81
2023/01/15 20:03:59;;;;;;;6.57;1.60;;;5.80;1.00;;;;;;5018953;28;20249;-80